sensor_id;sensor_type;location;lat;lon;timestamp;pressure;altitude;pressure_sealevel;temperature;humidity
56894;BME280;43392;50.078;13.704;2023-04-27T00:01:10;97177.00;;;2.90;66.95
56894;BME280;43392;50.078;13.704;2023-04-27T00:03:37;97170.50;;;2.86;66.38
56894;BME280;43392;50.078;13.704;2023-04-27T00:06:06;97170.50;;;2.86;66.22
56894;BME280;43392;50.078;13.704;2023-04-27T00:08:33;97164.63;;;2.84;66.86
56894;BME280;43392;50.078;13.704;2023-04-27T00:11:00;97166.47;;;2.84;66.97
56894;BME280;43392;50.078;13.704;2023-04-27T00:13:27;97166.13;;;2.80;67.60
56894;BME280;43392;50.078;13.704;2023-04-27T00:15:54;97166.31;;;2.79;67.99
56894;BME280;43392;50.078;13.704;2023-04-27T00:18:20;97172.06;;;2.76;68.70
56894;BME280;43392;50.078;13.704;2023-04-27T00:20:47;97168.47;;;2.70;69.25
56894;BME280;43392;50.078;13.704;2023-04-27T00:23:15;97159.56;;;2.64;69.37
56894;BME280;43392;50.078;13.704;2023-04-27T00:25:41;97162.66;;;2.61;69.86
56894;BME280;43392;50.078;13.704;2023-04-27T00:28:08;97159.03;;;2.56;70.23
56894;BME280;43392;50.078;13.704;2023-04-27T00:30:35;97156.47;;;2.49;70.88
56894;BME280;43392;50.078;13.704;2023-04-27T00:33:02;97156.91;;;2.46;71.11
56894;BME280;43392;50.078;13.704;2023-04-27T00:35:28;97159.16;;;2.43;71.16
56894;BME280;43392;50.078;13.704;2023-04-27T00:37:55;97166.28;;;2.42;71.56
56894;BME280;43392;50.078;13.704;2023-04-27T00:40:23;97164.69;;;2.41;71.78
56894;BME280;43392;50.078;13.704;2023-04-27T00:42:49;97164.69;;;2.41;71.49
56894;BME280;43392;50.078;13.704;2023-04-27T00:45:16;97161.63;;;2.44;71.76
56894;BME280;43392;50.078;13.704;2023-04-27T00:47:43;97169.31;;;2.46;71.50
56894;BME280;43392;50.078;13.704;2023-04-27T00:50:10;97160.38;;;2.47;71.67
56894;BME280;43392;50.078;13.704;2023-04-27T00:52:37;97162.56;;;2.50;71.12
56894;BME280;43392;50.078;13.704;2023-04-27T00:55:04;97171.09;;;2.52;71.13
56894;BME280;43392;50.078;13.704;2023-04-27T00:57:33;97167.41;;;2.53;70.90
56894;BME280;43392;50.078;13.704;2023-04-27T01:00:00;97170.06;;;2.53;70.97
56894;BME280;43392;50.078;13.704;2023-04-27T01:02:29;97169.47;;;2.51;70.99
56894;BME280;43392;50.078;13.704;2023-04-27T01:04:55;97172.78;;;2.46;71.18
56894;BME280;43392;50.078;13.704;2023-04-27T01:07:24;97174.47;;;2.41;71.93
56894;BME280;43392;50.078;13.704;2023-04-27T01:09:51;97173.66;;;2.40;72.63
56894;BME280;43392;50.078;13.704;2023-04-27T01:12:17;97171.00;;;2.40;73.38
56894;BME280;43392;50.078;13.704;2023-04-27T01:14:45;97165.13;;;2.38;73.66
56894;BME280;43392;50.078;13.704;2023-04-27T01:17:12;97157.41;;;2.37;73.89
56894;BME280;43392;50.078;13.704;2023-04-27T01:19:39;97167.19;;;2.36;74.19
56894;BME280;43392;50.078;13.704;2023-04-27T01:22:06;97164.53;;;2.36;74.16
56894;BME280;43392;50.078;13.704;2023-04-27T01:24:33;97162.47;;;2.38;74.63
56894;BME280;43392;50.078;13.704;2023-04-27T01:27:00;97175.19;;;2.48;74.09
56894;BME280;43392;50.078;13.704;2023-04-27T01:29:28;97164.41;;;2.49;73.66
56894;BME280;43392;50.078;13.704;2023-04-27T01:31:55;97168.66;;;2.50;73.71
56894;BME280;43392;50.078;13.704;2023-04-27T01:34:21;97155.44;;;2.50;73.50
56894;BME280;43392;50.078;13.704;2023-04-27T01:36:48;97162.56;;;2.50;73.68
56894;BME280;43392;50.078;13.704;2023-04-27T01:39:15;97159.13;;;2.49;73.33
56894;BME280;43392;50.078;13.704;2023-04-27T01:41:42;97165.88;;;2.45;73.54
56894;BME280;43392;50.078;13.704;2023-04-27T01:44:09;97168.16;;;2.42;73.88
56894;BME280;43392;50.078;13.704;2023-04-27T01:46:36;97169.41;;;2.39;74.67
56894;BME280;43392;50.078;13.704;2023-04-27T01:49:02;97170.84;;;2.35;75.70
56894;BME280;43392;50.078;13.704;2023-04-27T01:51:30;97173.78;;;2.27;75.48
56894;BME280;43392;50.078;13.704;2023-04-27T01:53:57;97166.34;;;2.18;76.00
56894;BME280;43392;50.078;13.704;2023-04-27T01:56:23;97180.00;;;2.15;75.69
56894;BME280;43392;50.078;13.704;2023-04-27T01:58:53;97175.53;;;2.15;76.01
56894;BME280;43392;50.078;13.704;2023-04-27T02:01:20;97177.13;;;2.16;76.05
56894;BME280;43392;50.078;13.704;2023-04-27T02:03:46;97176.69;;;2.19;75.55
56894;BME280;43392;50.078;13.704;2023-04-27T02:06:13;97177.28;;;2.21;75.78
56894;BME280;43392;50.078;13.704;2023-04-27T02:08:40;97181.75;;;2.21;75.60
56894;BME280;43392;50.078;13.704;2023-04-27T02:11:06;97179.34;;;2.19;75.85
56894;BME280;43392;50.078;13.704;2023-04-27T02:13:33;97178.75;;;2.17;76.24
56894;BME280;43392;50.078;13.704;2023-04-27T02:16:01;97171.25;;;2.14;76.39
56894;BME280;43392;50.078;13.704;2023-04-27T02:18:29;97175.06;;;2.18;77.09
56894;BME280;43392;50.078;13.704;2023-04-27T02:20:56;97182.81;;;2.20;76.61
56894;BME280;43392;50.078;13.704;2023-04-27T02:23:23;97181.19;;;2.19;77.11
56894;BME280;43392;50.078;13.704;2023-04-27T02:25:49;97178.09;;;2.22;77.21
56894;BME280;43392;50.078;13.704;2023-04-27T02:28:16;97179.13;;;2.21;77.22
56894;BME280;43392;50.078;13.704;2023-04-27T02:30:43;97186.03;;;2.22;77.03
56894;BME280;43392;50.078;13.704;2023-04-27T02:33:11;97184.22;;;2.22;77.40
56894;BME280;43392;50.078;13.704;2023-04-27T02:35:38;97185.06;;;2.16;77.14
56894;BME280;43392;50.078;13.704;2023-04-27T02:38:04;97188.91;;;2.20;77.52
56894;BME280;43392;50.078;13.704;2023-04-27T02:40:31;97185.22;;;2.21;77.41
56894;BME280;43392;50.078;13.704;2023-04-27T02:42:58;97180.31;;;2.25;77.47
56894;BME280;43392;50.078;13.704;2023-04-27T02:45:24;97193.09;;;2.28;77.27
56894;BME280;43392;50.078;13.704;2023-04-27T02:47:51;97183.91;;;2.30;77.21
56894;BME280;43392;50.078;13.704;2023-04-27T02:50:19;97187.75;;;2.34;77.14
56894;BME280;43392;50.078;13.704;2023-04-27T02:52:45;97187.34;;;2.37;77.00
56894;BME280;43392;50.078;13.704;2023-04-27T02:55:12;97184.47;;;2.39;76.93
56894;BME280;43392;50.078;13.704;2023-04-27T02:57:39;97191.16;;;2.41;76.41
56894;BME280;43392;50.078;13.704;2023-04-27T03:00:06;97191.75;;;2.43;76.32
56894;BME280;43392;50.078;13.704;2023-04-27T03:02:35;97182.78;;;2.44;76.60
56894;BME280;43392;50.078;13.704;2023-04-27T03:05:01;97191.31;;;2.46;76.79
56894;BME280;43392;50.078;13.704;2023-04-27T03:07:30;97187.03;;;2.45;76.68
56894;BME280;43392;50.078;13.704;2023-04-27T03:09:57;97189.91;;;2.44;76.53
56894;BME280;43392;50.078;13.704;2023-04-27T03:12:23;97189.69;;;2.45;76.68
56894;BME280;43392;50.078;13.704;2023-04-27T03:14:50;97189.91;;;2.44;75.92
56894;BME280;43392;50.078;13.704;2023-04-27T03:17:17;97186.88;;;2.40;75.64
56894;BME280;43392;50.078;13.704;2023-04-27T03:19:43;97193.22;;;2.39;76.22
56894;BME280;43392;50.078;13.704;2023-04-27T03:22:12;97210.94;;;2.39;77.04
56894;BME280;43392;50.078;13.704;2023-04-27T03:24:40;97199.94;;;2.35;78.15
56894;BME280;43392;50.078;13.704;2023-04-27T03:27:06;97205.91;;;2.31;78.80
56894;BME280;43392;50.078;13.704;2023-04-27T03:29:33;97206.13;;;2.29;78.97
56894;BME280;43392;50.078;13.704;2023-04-27T03:32:00;97210.25;;;2.25;79.55
56894;BME280;43392;50.078;13.704;2023-04-27T03:34:26;97201.69;;;2.23;79.62
56894;BME280;43392;50.078;13.704;2023-04-27T03:36:53;97204.34;;;2.23;79.67
56894;BME280;43392;50.078;13.704;2023-04-27T03:39:19;97206.97;;;2.23;79.43
56894;BME280;43392;50.078;13.704;2023-04-27T03:41:48;97202.72;;;2.22;79.55
56894;BME280;43392;50.078;13.704;2023-04-27T03:44:14;97205.97;;;2.24;79.73
56894;BME280;43392;50.078;13.704;2023-04-27T03:46:41;97207.38;;;2.27;79.66
56894;BME280;43392;50.078;13.704;2023-04-27T03:49:07;97209.78;;;2.28;79.87
56894;BME280;43392;50.078;13.704;2023-04-27T03:51:34;97206.13;;;2.29;79.68
56894;BME280;43392;50.078;13.704;2023-04-27T03:54:02;97210.59;;;2.29;79.70
56894;BME280;43392;50.078;13.704;2023-04-27T03:56:29;97207.59;;;2.25;79.78
56894;BME280;43392;50.078;13.704;2023-04-27T03:58:57;97218.78;;;2.27;79.92
56894;BME280;43392;50.078;13.704;2023-04-27T04:01:24;97213.66;;;2.26;79.44
56894;BME280;43392;50.078;13.704;2023-04-27T04:03:51;97228.31;;;2.28;79.55
56894;BME280;43392;50.078;13.704;2023-04-27T04:06:17;97223.41;;;2.32;79.37
56894;BME280;43392;50.078;13.704;2023-04-27T04:08:44;97228.03;;;2.36;79.19
56894;BME280;43392;50.078;13.704;2023-04-27T04:11:11;97229.03;;;2.42;78.91
56894;BME280;43392;50.078;13.704;2023-04-27T04:13:37;97229.38;;;2.45;79.52
56894;BME280;43392;50.078;13.704;2023-04-27T04:16:07;97234.25;;;2.48;79.64
56894;BME280;43392;50.078;13.704;2023-04-27T04:18:34;97229.31;;;2.52;79.81
56894;BME280;43392;50.078;13.704;2023-04-27T04:21:01;97234.75;;;2.57;79.49
56894;BME280;43392;50.078;13.704;2023-04-27T04:23:28;97241.47;;;2.59;79.14
56894;BME280;43392;50.078;13.704;2023-04-27T04:25:55;97244.09;;;2.59;78.76
56894;BME280;43392;50.078;13.704;2023-04-27T04:28:22;97246.75;;;2.59;78.72
56894;BME280;43392;50.078;13.704;2023-04-27T04:30:48;97253.44;;;2.62;79.52
56894;BME280;43392;50.078;13.704;2023-04-27T04:33:17;97253.25;;;2.63;80.28
56894;BME280;43392;50.078;13.704;2023-04-27T04:35:43;97250.03;;;2.61;79.72
56894;BME280;43392;50.078;13.704;2023-04-27T04:38:10;97257.34;;;2.59;79.66
56894;BME280;43392;50.078;13.704;2023-04-27T04:40:37;97251.25;;;2.59;79.11
56894;BME280;43392;50.078;13.704;2023-04-27T04:43:04;97259.22;;;2.59;78.98
56894;BME280;43392;50.078;13.704;2023-04-27T04:45:31;97260.22;;;2.58;79.07
56894;BME280;43392;50.078;13.704;2023-04-27T04:47:57;97258.16;;;2.60;79.64
56894;BME280;43392;50.078;13.704;2023-04-27T04:50:26;97259.50;;;2.69;79.88
56894;BME280;43392;50.078;13.704;2023-04-27T04:52:53;97269.00;;;2.77;79.76
56894;BME280;43392;50.078;13.704;2023-04-27T04:55:20;97272.84;;;2.81;79.76
56894;BME280;43392;50.078;13.704;2023-04-27T04:57:46;97262.41;;;2.86;80.00
56894;BME280;43392;50.078;13.704;2023-04-27T05:00:13;97274.34;;;2.95;79.96
56894;BME280;43392;50.078;13.704;2023-04-27T05:02:40;97272.19;;;3.03;79.69
56894;BME280;43392;50.078;13.704;2023-04-27T05:05:08;97267.19;;;3.13;79.80
56894;BME280;43392;50.078;13.704;2023-04-27T05:07:36;97266.47;;;3.24;79.48
56894;BME280;43392;50.078;13.704;2023-04-27T05:10:03;97261.59;;;3.40;79.11
56894;BME280;43392;50.078;13.704;2023-04-27T05:12:29;97264.91;;;3.53;78.78
56894;BME280;43392;50.078;13.704;2023-04-27T05:14:56;97268.41;;;3.65;78.42
56894;BME280;43392;50.078;13.704;2023-04-27T05:17:22;97270.28;;;3.76;77.92
56894;BME280;43392;50.078;13.704;2023-04-27T05:19:49;97266.28;;;3.85;78.20
56894;BME280;43392;50.078;13.704;2023-04-27T05:22:16;97267.59;;;3.94;78.58
56894;BME280;43392;50.078;13.704;2023-04-27T05:24:44;97265.66;;;4.01;78.58
56894;BME280;43392;50.078;13.704;2023-04-27T05:27:11;97270.28;;;4.06;78.13
56894;BME280;43392;50.078;13.704;2023-04-27T05:29:38;97270.63;;;4.10;78.11
56894;BME280;43392;50.078;13.704;2023-04-27T05:32:05;97262.81;;;4.15;77.82
56894;BME280;43392;50.078;13.704;2023-04-27T05:34:32;97261.91;;;4.21;77.47
56894;BME280;43392;50.078;13.704;2023-04-27T05:36:58;97268.25;;;4.31;77.42
56894;BME280;43392;50.078;13.704;2023-04-27T05:39:25;97267.69;;;4.41;76.94
56894;BME280;43392;50.078;13.704;2023-04-27T05:41:53;97250.75;;;4.53;77.16
56894;BME280;43392;50.078;13.704;2023-04-27T05:44:20;97258.75;;;4.65;76.58
56894;BME280;43392;50.078;13.704;2023-04-27T05:46:49;97265.66;;;4.78;75.97
56894;BME280;43392;50.078;13.704;2023-04-27T05:49:16;97262.91;;;4.84;75.71
56894;BME280;43392;50.078;13.704;2023-04-27T05:51:42;97268.53;;;4.88;76.08
56894;BME280;43392;50.078;13.704;2023-04-27T05:54:09;97266.56;;;4.95;76.78
56894;BME280;43392;50.078;13.704;2023-04-27T05:56:35;97265.88;;;4.99;75.87
56894;BME280;43392;50.078;13.704;2023-04-27T05:59:03;97264.38;;;5.03;76.35
56894;BME280;43392;50.078;13.704;2023-04-27T06:01:30;97264.03;;;5.23;82.14
56894;BME280;43392;50.078;13.704;2023-04-27T06:03:56;97259.47;;;6.31;78.37
56894;BME280;43392;50.078;13.704;2023-04-27T06:06:25;97259.72;;;6.63;72.02
56894;BME280;43392;50.078;13.704;2023-04-27T06:08:53;97257.06;;;6.46;71.54
56894;BME280;43392;50.078;13.704;2023-04-27T06:11:19;97262.28;;;6.25;70.18
56894;BME280;43392;50.078;13.704;2023-04-27T06:13:46;97262.25;;;6.08;70.43
56894;BME280;43392;50.078;13.704;2023-04-27T06:16:14;97262.69;;;6.17;70.12
56894;BME280;43392;50.078;13.704;2023-04-27T06:18:41;97266.72;;;6.19;69.74
56894;BME280;43392;50.078;13.704;2023-04-27T06:21:07;97266.81;;;6.24;70.44
56894;BME280;43392;50.078;13.704;2023-04-27T06:23:34;97270.78;;;6.38;70.32
56894;BME280;43392;50.078;13.704;2023-04-27T06:26:00;97263.19;;;6.47;69.49
56894;BME280;43392;50.078;13.704;2023-04-27T06:28:27;97269.31;;;6.47;69.28
56894;BME280;43392;50.078;13.704;2023-04-27T06:30:54;97266.75;;;6.52;70.24
56894;BME280;43392;50.078;13.704;2023-04-27T06:33:22;97267.81;;;6.51;69.31
56894;BME280;43392;50.078;13.704;2023-04-27T06:35:48;97261.00;;;6.44;70.18
56894;BME280;43392;50.078;13.704;2023-04-27T06:38:16;97266.81;;;6.41;70.32
56894;BME280;43392;50.078;13.704;2023-04-27T06:40:43;97269.47;;;6.41;70.22
56894;BME280;43392;50.078;13.704;2023-04-27T06:43:10;97264.25;;;6.62;69.73
56894;BME280;43392;50.078;13.704;2023-04-27T06:45:36;97269.00;;;6.77;69.12
56894;BME280;43392;50.078;13.704;2023-04-27T06:48:03;97278.81;;;6.93;69.18
56894;BME280;43392;50.078;13.704;2023-04-27T06:50:31;97275.31;;;7.26;67.96
56894;BME280;43392;50.078;13.704;2023-04-27T06:52:58;97280.78;;;7.58;66.32
56894;BME280;43392;50.078;13.704;2023-04-27T06:55:25;97278.13;;;7.79;65.49
56894;BME280;43392;50.078;13.704;2023-04-27T06:57:51;97274.69;;;7.84;64.17
56894;BME280;43392;50.078;13.704;2023-04-27T07:00:18;97272.31;;;7.87;64.06
56894;BME280;43392;50.078;13.704;2023-04-27T07:02:45;97265.19;;;7.71;63.18
56894;BME280;43392;50.078;13.704;2023-04-27T07:05:12;97282.59;;;7.74;60.76
56894;BME280;43392;50.078;13.704;2023-04-27T07:07:39;97280.31;;;7.87;59.67
56894;BME280;43392;50.078;13.704;2023-04-27T07:10:07;97282.38;;;7.80;59.24
56894;BME280;43392;50.078;13.704;2023-04-27T07:12:34;97272.03;;;7.62;59.23
56894;BME280;43392;50.078;13.704;2023-04-27T07:15:01;97285.94;;;7.64;56.50
56894;BME280;43392;50.078;13.704;2023-04-27T07:17:28;97280.25;;;7.82;56.12
56894;BME280;43392;50.078;13.704;2023-04-27T07:19:55;97278.13;;;7.79;55.38
56894;BME280;43392;50.078;13.704;2023-04-27T07:22:22;97280.44;;;7.97;55.15
56894;BME280;43392;50.078;13.704;2023-04-27T07:24:50;97277.69;;;8.14;54.44
56894;BME280;43392;50.078;13.704;2023-04-27T07:27:16;97274.16;;;8.30;53.66
56894;BME280;43392;50.078;13.704;2023-04-27T07:29:43;97280.47;;;8.51;54.10
56894;BME280;43392;50.078;13.704;2023-04-27T07:32:10;97282.22;;;8.67;51.62
56894;BME280;43392;50.078;13.704;2023-04-27T07:34:36;97278.53;;;8.73;51.79
56894;BME280;43392;50.078;13.704;2023-04-27T07:37:03;97275.81;;;8.68;48.27
56894;BME280;43392;50.078;13.704;2023-04-27T07:39:29;97274.22;;;8.67;49.62
56894;BME280;43392;50.078;13.704;2023-04-27T07:41:58;97276.63;;;8.68;49.60
56894;BME280;43392;50.078;13.704;2023-04-27T07:44:24;97280.16;;;8.74;49.53
56894;BME280;43392;50.078;13.704;2023-04-27T07:46:51;97279.09;;;8.80;49.42
56894;BME280;43392;50.078;13.704;2023-04-27T07:49:22;97286.91;;;8.87;48.38
56894;BME280;43392;50.078;13.704;2023-04-27T07:51:49;97282.38;;;8.87;46.60
56894;BME280;43392;50.078;13.704;2023-04-27T07:54:16;97289.81;;;8.80;46.90
56894;BME280;43392;50.078;13.704;2023-04-27T07:56:43;97287.44;;;8.84;47.98
56894;BME280;43392;50.078;13.704;2023-04-27T07:59:11;97273.84;;;8.90;47.29
56894;BME280;43392;50.078;13.704;2023-04-27T08:01:38;97274.94;;;8.94;47.90
56894;BME280;43392;50.078;13.704;2023-04-27T08:04:05;97290.53;;;9.07;47.56
56894;BME280;43392;50.078;13.704;2023-04-27T08:06:32;97277.47;;;9.16;47.66
56894;BME280;43392;50.078;13.704;2023-04-27T08:08:59;97281.03;;;9.26;48.03
56894;BME280;43392;50.078;13.704;2023-04-27T08:11:27;97271.97;;;9.38;47.50
56894;BME280;43392;50.078;13.704;2023-04-27T08:13:54;97278.47;;;9.47;49.00
56894;BME280;43392;50.078;13.704;2023-04-27T08:16:22;97277.97;;;9.60;48.86
56894;BME280;43392;50.078;13.704;2023-04-27T08:18:49;97287.13;;;9.74;49.04
56894;BME280;43392;50.078;13.704;2023-04-27T08:21:15;97281.28;;;9.82;47.49
56894;BME280;43392;50.078;13.704;2023-04-27T08:23:42;97285.19;;;9.49;46.62
56894;BME280;43392;50.078;13.704;2023-04-27T08:26:13;97282.50;;;9.49;48.09
56894;BME280;43392;50.078;13.704;2023-04-27T08:28:39;97282.34;;;9.71;48.97
56894;BME280;43392;50.078;13.704;2023-04-27T08:31:06;97284.56;;;9.94;48.60
56894;BME280;43392;50.078;13.704;2023-04-27T08:33:34;97285.63;;;10.03;45.63
56894;BME280;43392;50.078;13.704;2023-04-27T08:36:01;97285.63;;;9.98;44.68
56894;BME280;43392;50.078;13.704;2023-04-27T08:38:27;97279.72;;;9.96;43.25
56894;BME280;43392;50.078;13.704;2023-04-27T08:40:54;97278.66;;;9.92;43.60
56894;BME280;43392;50.078;13.704;2023-04-27T08:43:21;97280.84;;;10.05;45.56
56894;BME280;43392;50.078;13.704;2023-04-27T08:45:48;97279.50;;;10.02;46.69
56894;BME280;43392;50.078;13.704;2023-04-27T08:48:16;97278.72;;;10.07;46.09
56894;BME280;43392;50.078;13.704;2023-04-27T08:50:44;97279.31;;;10.19;45.06
56894;BME280;43392;50.078;13.704;2023-04-27T08:53:18;97277.84;;;9.91;43.23
56894;BME280;43392;50.078;13.704;2023-04-27T08:55:45;97281.84;;;9.89;43.36
56894;BME280;43392;50.078;13.704;2023-04-27T08:58:12;97287.72;;;9.76;45.33
56894;BME280;43392;50.078;13.704;2023-04-27T09:00:39;97280.25;;;9.88;44.55
56894;BME280;43392;50.078;13.704;2023-04-27T09:03:06;97286.22;;;10.05;43.05
56894;BME280;43392;50.078;13.704;2023-04-27T09:05:33;97286.25;;;10.15;43.39
56894;BME280;43392;50.078;13.704;2023-04-27T09:08:02;97291.38;;;10.27;42.91
56894;BME280;43392;50.078;13.704;2023-04-27T09:10:42;97284.13;;;10.27;43.22
56894;BME280;43392;50.078;13.704;2023-04-27T09:13:09;97283.34;;;10.37;42.92
56894;BME280;43392;50.078;13.704;2023-04-27T09:15:41;97281.50;;;10.57;42.60
56894;BME280;43392;50.078;13.704;2023-04-27T09:18:13;97275.31;;;10.62;43.47
56894;BME280;43392;50.078;13.704;2023-04-27T09:20:44;97270.78;;;10.62;42.83
56894;BME280;43392;50.078;13.704;2023-04-27T09:23:24;97270.50;;;11.04;42.20
56894;BME280;43392;50.078;13.704;2023-04-27T09:25:52;97273.66;;;11.31;42.32
56894;BME280;43392;50.078;13.704;2023-04-27T09:28:19;97277.16;;;11.32;42.57
56894;BME280;43392;50.078;13.704;2023-04-27T09:30:51;97279.50;;;11.49;41.75
56894;BME280;43392;50.078;13.704;2023-04-27T09:33:21;97282.22;;;11.44;41.26
56894;BME280;43392;50.078;13.704;2023-04-27T09:35:48;97274.25;;;11.13;41.12
56894;BME280;43392;50.078;13.704;2023-04-27T09:38:17;97281.25;;;10.94;41.88
56894;BME280;43392;50.078;13.704;2023-04-27T09:40:44;97279.34;;;10.95;42.08
56894;BME280;43392;50.078;13.704;2023-04-27T09:43:11;97282.03;;;11.00;41.70
56894;BME280;43392;50.078;13.704;2023-04-27T09:45:38;97273.72;;;10.91;42.69
56894;BME280;43392;50.078;13.704;2023-04-27T09:48:05;97275.06;;;10.94;42.74
56894;BME280;43392;50.078;13.704;2023-04-27T09:50:33;97271.28;;;11.15;42.22
56894;BME280;43392;50.078;13.704;2023-04-27T09:53:01;97274.75;;;11.15;42.02
56894;BME280;43392;50.078;13.704;2023-04-27T09:55:32;97272.38;;;11.14;42.50
56894;BME280;43392;50.078;13.704;2023-04-27T09:58:12;97271.56;;;11.03;42.20
56894;BME280;43392;50.078;13.704;2023-04-27T10:00:55;97268.59;;;11.00;43.36
56894;BME280;43392;50.078;13.704;2023-04-27T10:03:29;97270.47;;;11.09;43.60
56894;BME280;43392;50.078;13.704;2023-04-27T10:08:59;97259.84;;;11.73;43.99
56894;BME280;43392;50.078;13.704;2023-04-27T10:11:37;97257.84;;;11.99;40.53
56894;BME280;43392;50.078;13.704;2023-04-27T10:14:06;97258.56;;;12.20;41.36
56894;BME280;43392;50.078;13.704;2023-04-27T10:16:42;97260.94;;;12.21;42.01
56894;BME280;43392;50.078;13.704;2023-04-27T10:19:09;97249.22;;;12.07;42.28
56894;BME280;43392;50.078;13.704;2023-04-27T10:21:35;97247.88;;;12.05;42.74
56894;BME280;43392;50.078;13.704;2023-04-27T10:24:06;97249.25;;;11.97;41.83
56894;BME280;43392;50.078;13.704;2023-04-27T10:26:35;97258.78;;;11.79;41.61
56894;BME280;43392;50.078;13.704;2023-04-27T10:29:05;97243.50;;;12.19;42.36
56894;BME280;43392;50.078;13.704;2023-04-27T10:31:33;97249.97;;;12.56;42.19
56894;BME280;43392;50.078;13.704;2023-04-27T10:34:07;97244.41;;;12.77;41.33
56894;BME280;43392;50.078;13.704;2023-04-27T10:36:34;97243.00;;;12.84;41.29
56894;BME280;43392;50.078;13.704;2023-04-27T10:39:02;97248.53;;;12.69;40.71
56894;BME280;43392;50.078;13.704;2023-04-27T10:41:33;97249.72;;;12.53;39.76
56894;BME280;43392;50.078;13.704;2023-04-27T10:44:15;97249.81;;;12.38;40.13
56894;BME280;43392;50.078;13.704;2023-04-27T10:46:51;97242.88;;;12.32;40.81
56894;BME280;43392;50.078;13.704;2023-04-27T10:49:18;97250.16;;;12.26;41.64
56894;BME280;43392;50.078;13.704;2023-04-27T10:51:45;97246.75;;;12.16;41.50
56894;BME280;43392;50.078;13.704;2023-04-27T10:54:12;97242.59;;;12.33;41.84
56894;BME280;43392;50.078;13.704;2023-04-27T10:56:39;97243.81;;;12.51;41.47
56894;BME280;43392;50.078;13.704;2023-04-27T10:59:06;97241.81;;;12.67;41.20
56894;BME280;43392;50.078;13.704;2023-04-27T11:01:34;97236.97;;;12.69;39.34
56894;BME280;43392;50.078;13.704;2023-04-27T11:04:02;97242.41;;;12.58;39.91
56894;BME280;43392;50.078;13.704;2023-04-27T11:06:30;97239.50;;;12.50;39.29
56894;BME280;43392;50.078;13.704;2023-04-27T11:08:58;97245.03;;;12.35;39.32
56894;BME280;43392;50.078;13.704;2023-04-27T11:11:24;97243.75;;;12.22;40.11
56894;BME280;43392;50.078;13.704;2023-04-27T11:13:52;97239.22;;;12.18;40.40
56894;BME280;43392;50.078;13.704;2023-04-27T11:16:20;97243.78;;;12.17;41.50
56894;BME280;43392;50.078;13.704;2023-04-27T11:18:48;97233.44;;;12.34;41.38
56894;BME280;43392;50.078;13.704;2023-04-27T11:21:17;97236.44;;;12.67;40.57
56894;BME280;43392;50.078;13.704;2023-04-27T11:23:44;97237.19;;;12.72;40.77
56894;BME280;43392;50.078;13.704;2023-04-27T11:26:13;97230.19;;;12.76;41.08
56894;BME280;43392;50.078;13.704;2023-04-27T11:28:40;97228.34;;;13.00;39.60
56894;BME280;43392;50.078;13.704;2023-04-27T11:31:07;97217.63;;;12.95;38.53
56894;BME280;43392;50.078;13.704;2023-04-27T11:33:34;97223.41;;;13.12;39.85
56894;BME280;43392;50.078;13.704;2023-04-27T11:36:02;97222.50;;;13.46;39.92
56894;BME280;43392;50.078;13.704;2023-04-27T11:38:32;97227.31;;;13.49;40.35
56894;BME280;43392;50.078;13.704;2023-04-27T11:41:00;97225.19;;;13.46;40.18
56894;BME280;43392;50.078;13.704;2023-04-27T11:43:27;97223.13;;;13.38;38.20
56894;BME280;43392;50.078;13.704;2023-04-27T11:45:54;97234.03;;;13.22;38.34
56894;BME280;43392;50.078;13.704;2023-04-27T11:48:21;97235.28;;;13.06;39.02
56894;BME280;43392;50.078;13.704;2023-04-27T11:50:48;97232.09;;;12.99;40.13
56894;BME280;43392;50.078;13.704;2023-04-27T11:53:17;97238.00;;;13.01;40.40
56894;BME280;43392;50.078;13.704;2023-04-27T11:55:53;97242.56;;;13.01;40.55
56894;BME280;43392;50.078;13.704;2023-04-27T11:58:20;97241.22;;;13.03;40.02
56894;BME280;43392;50.078;13.704;2023-04-27T12:00:47;97238.00;;;13.06;40.62
56894;BME280;43392;50.078;13.704;2023-04-27T12:03:13;97235.28;;;13.06;40.88
56894;BME280;43392;50.078;13.704;2023-04-27T12:05:46;97228.84;;;13.02;39.03
56894;BME280;43392;50.078;13.704;2023-04-27T12:08:14;97229.41;;;12.99;39.32
56894;BME280;43392;50.078;13.704;2023-04-27T12:10:43;97220.88;;;12.92;39.41
56894;BME280;43392;50.078;13.704;2023-04-27T12:13:10;97222.84;;;12.82;38.74
56894;BME280;43392;50.078;13.704;2023-04-27T12:15:37;97231.50;;;12.79;38.24
56894;BME280;43392;50.078;13.704;2023-04-27T12:18:04;97233.75;;;12.67;38.31
56894;BME280;43392;50.078;13.704;2023-04-27T12:20:32;97231.63;;;12.63;39.13
56894;BME280;43392;50.078;13.704;2023-04-27T12:22:58;97227.75;;;12.75;39.52
56894;BME280;43392;50.078;13.704;2023-04-27T12:25:25;97229.25;;;13.19;38.11
56894;BME280;43392;50.078;13.704;2023-04-27T12:27:53;97218.47;;;13.19;38.35
56894;BME280;43392;50.078;13.704;2023-04-27T12:30:21;97227.97;;;13.12;38.34
56894;BME280;43392;50.078;13.704;2023-04-27T12:32:48;97227.16;;;13.11;38.27
56894;BME280;43392;50.078;13.704;2023-04-27T12:35:15;97226.50;;;13.24;38.38
56894;BME280;43392;50.078;13.704;2023-04-27T12:37:42;97232.75;;;13.44;38.97
56894;BME280;43392;50.078;13.704;2023-04-27T12:40:09;97231.19;;;13.61;38.17
56894;BME280;43392;50.078;13.704;2023-04-27T12:42:35;97229.81;;;13.40;38.27
56894;BME280;43392;50.078;13.704;2023-04-27T12:45:04;97227.22;;;13.30;39.44
56894;BME280;43392;50.078;13.704;2023-04-27T12:47:31;97230.06;;;13.20;39.82
56894;BME280;43392;50.078;13.704;2023-04-27T12:49:59;97230.06;;;13.20;39.50
56894;BME280;43392;50.078;13.704;2023-04-27T12:52:26;97223.88;;;13.19;38.51
56894;BME280;43392;50.078;13.704;2023-04-27T12:54:52;97224.88;;;13.47;38.54
56894;BME280;43392;50.078;13.704;2023-04-27T12:57:23;97217.91;;;13.70;39.30
56894;BME280;43392;50.078;13.704;2023-04-27T12:59:51;97222.13;;;13.76;38.55
56894;BME280;43392;50.078;13.704;2023-04-27T13:02:19;97220.53;;;13.75;40.01